NEODyS-2

Near Earth Objects - Dynamic Site
NEODyS ∴ Observatories ∴ Site 691 ∴ Obs & residuals
Contact »
691  ▹ 
OBSERVATIONS AND RESIDUALS

691-Steward Observatory, Kitt Peak-Spacewatch

Detections | Residuals | Detections & Residuals

[1-200] [201-400] [401-600] [601-800] [801-1000] [1001-1200] [1201-1400] [1401-1600] [1601-1800] [1801-2000] [2001-2200] [2201-2400] [2401-2600] [2601-2800] [2801-3000] [3001-3200] [3201-3400] [3401-3600] [3601-3800] [3801-4000] [4001-4200] [4201-4400] [4401-4600] [4601-4800] [4801-5000] [5001-5200] [5201-5400] [5401-5600] [5601-5800] [5801-6000] [6001-6200] [6201-6400] [6401-6600] [6601-6800] [6801-7000] [7001-7200] [7201-7400] [7401-7600] [7601-7800] [7801-8000] [8001-8200] [8201-8400] [8401-8600] [8601-8800] [8801-9000] [9001-9200] [9201-9400] [9401-9600] [9601-9800] [9801-10000] [10001-10200] [10201-10400] [10401-10600] [10601-10800] [10801-11000] [11001-11200] [11201-11400] [11401-11600] [11601-11800] [11801-12000] [12001-12200] [12201-12400] [12401-12600] [12601-12800] [12801-13000] [13001-13200] [13201-13400] [13401-13600] [13601-13800] [13801-14000] [14001-14200] [14201-14400] [14401-14600] [14601-14800] [14801-15000] [15001-15200] [15201-15400] [15401-15600] [15601-15800] [15801-16000] [16001-16200] [16201-16400] [16401-16600] [16601-16800] [16801-17000] [17001-17200] [17201-17400] [17401-17600] [17601-17800] [17801-18000] [18001-18200] [18201-18400] [18401-18600] [18601-18800] [18801-19000] [19001-19200] [19201-19400] [19401-19600] [19601-19800] [19801-20000] [20001-20200] [20201-20400] [20401-20600] [20601-20800] [20801-21000] [21001-21200] [21201-21400] [21401-21600] [21601-21800] [21801-22000] [22001-22200] [22201-22400] [22401-22600] [22601-22800] [22801-23000] [23001-23200] [23201-23400] [23401-23600] [23601-23800] [23801-24000] [24001-24200] [24201-24400] [24401-24600] [24601-24800] [24801-25000] [25001-25200] [25201-25400] [25401-25600] [25601-25800] [25801-26000] [26001-26200] [26201-26400] [26401-26600] [26601-26800] [26801-27000] [27001-27200] [27201-27400] [27401-27600] [27601-27800] [27801-28000] [28001-28200] [28201-28400] [28401-28600] [28601-28800] [28801-29000] [29001-29200] [29201-29400] [29401-29600] [29601-29800] [29801-30000] [30001-30200] [30201-30400] [30401-30600] [30601-30800] [30801-31000] [31001-31200] [31201-31400] [31401-31600] [31601-31800] [31801-32000] [32001-32200] [32201-32400] [32401-32600] [32601-32800] [32801-33000] [33001-33200] [33201-33400] [33401-33600] [33601-33800] [33801-34000] [34001-34200] [34201-34400] [34401-34600] [34601-34800] [34801-35000] [35001-35200] [35201-35400] [35401-35600] [35601-35800] [35801-36000] [36001-36200] [36201-36400] [36401-36600] [36601-36800] [36801-37000] [37001-37200] [37201-37400] [37401-37600] [37601-37800] [37801-38000] [38001-38200] [38201-38400] [38401-38600] [38601-38800] [38801-39000] [39001-39200] [39201-39400] [39401-39600] [39601-39800] [39801-40000] [40001-40200] [40201-40400] [40401-40600] [40601-40800] [40801-41000] [41001-41200] [41201-41400] [41401-41600] [41601-41800] [41801-42000] [42001-42200] [42201-42400] [42401-42600] [42601-42800] [42801-43000] [43001-43200] [43201-43400] [43401-43600] [43601-43800] [43801-44000] [44001-44200] [44201-44400] [44401-44600] [44601-44800] [44801-45000] [45001-45200] [45201-45400] [45401-45600] [45601-45800] [45801-46000] [46001-46200] [46201-46400] [46401-46600] [46601-46800] [46801-47000] [47001-47200] [47201-47400] [47401-47600] [47601-47800] [47801-48000] [48001-48200] [48201-48400] [48401-48600] [48601-48800] [48801-49000] [49001-49200] [49201-49400] [49401-49600] [49601-49800] [49801-50000] [50001-50200] [50201-50388]

Designation T Tech N Date Right Ascension Declination Apparent Magnitude Star Catalog Site code χ Used A Used M
yr-mo-day precision hr:min:sec precision rms F bias residual deg min sec precision rms F bias residual mag/col rms residual
2016QE45 O C H 2016-09-10.31629 1.000E-05 00:00:28.550 1.500E-01 0.500 F -0.245 -0.297 -11° 18' 43.30" 1.000E-01 0.500 F 0.207 0.517 20.9 V 0.70 0.47 o 691 1.19 Yes Yes
2016RR33 O C 2016-09-10.32383 1.000E-05 00:36:08.620 1.500E-01 0.612 F -0.368 -0.065 -14° 34' 27.70" 1.000E-01 0.612 F 0.165 0.112 20.0 V 0.70 -0.45 o 691 0.21 Yes Yes
2016RR33 O C H 2016-09-10.32383 1.000E-05 00:36:08.610 1.500E-01 0.612 F -0.368 -0.211 -14° 34' 27.90" 1.000E-01 0.612 F 0.165 -0.088 20.4 V 0.70 -0.05 o 691 0.37 Yes Yes
2016RJ18 O C H 2016-09-10.32901 1.000E-05 00:47:19.460 1.500E-01 0.500 F -0.362 0.143 -22° 36' 48.10" 1.000E-01 0.500 F 0.289 -0.125 20.7 V 0.70 0.44 o 691 0.39 Yes Yes
2016RR33 O C 2016-09-10.33131 1.000E-05 00:36:07.970 1.500E-01 0.612 F -0.368 -0.199 -14° 34' 29.10" 1.000E-01 0.612 F 0.165 -0.137 20.2 V 0.70 -0.25 o 691 0.40 Yes Yes
2016RR33 O C H 2016-09-10.33131 1.000E-05 00:36:07.970 1.500E-01 0.612 F -0.368 -0.199 -14° 34' 29.30" 1.000E-01 0.612 F 0.165 -0.337 20.6 V 0.70 0.15 o 691 0.64 Yes Yes
2016RJ18 O C H 2016-09-10.33651 1.000E-05 00:47:19.870 1.500E-01 0.500 F -0.362 0.177 -22° 36' 15.50" 1.000E-01 0.500 F 0.289 -0.731 o 691 1.55 Yes No
2016RR33 O C 2016-09-10.33878 1.000E-05 00:36:07.320 1.500E-01 0.612 F -0.368 -0.340 -14° 34' 30.00" 1.000E-01 0.612 F 0.165 0.104 20.3 V 0.70 -0.15 o 691 0.58 Yes Yes
2016RR33 O C H 2016-09-10.33878 1.000E-05 00:36:07.340 1.500E-01 0.612 F -0.368 -0.049 -14° 34' 30.20" 1.000E-01 0.612 F 0.165 -0.096 20.5 V 0.70 0.05 o 691 0.18 Yes Yes
2016RJ18 O C H 2016-09-10.34405 1.000E-05 00:47:20.300 1.500E-01 0.500 F -0.362 0.494 -22° 35' 42.00" 1.000E-01 0.500 F 0.289 -0.665 o 691 1.71 Yes No
2016PN8 O C H 2016-09-10.34852 1.000E-05 01:16:18.130 1.500E-01 0.500 F -0.251 0.389 -12° 20' 20.50" 1.000E-01 0.500 F 0.124 0.373 20.6 V 0.70 -0.31 o 691 1.09 Yes Yes
2016QR44 O C H 2016-09-10.35398 1.000E-05 01:21:15.630 1.500E-01 0.500 F -0.255 -0.365 +11° 52' 54.90" 1.000E-01 0.500 F 0.360 0.598 20.9 V 0.70 0.24 o 691 1.46 Yes Yes
2016RL20 O C H 2016-09-10.35655 1.000E-05 01:24:09.500 1.500E-01 0.500 F -0.251 1.327 -12° 27' 32.80" 1.000E-01 0.500 F 0.181 -2.642 o 691 5.77 No No
2016PN8 O C H 2016-09-10.35886 1.000E-05 01:16:17.510 1.500E-01 0.500 F -0.251 0.392 -12° 20' 17.10" 1.000E-01 0.500 F 0.124 -0.205 20.7 V 0.70 -0.21 o 691 0.89 Yes Yes
2016QR44 O C H 2016-09-10.36439 1.000E-05 01:21:16.040 1.500E-01 0.500 F -0.255 0.126 +11° 52' 21.90" 1.000E-01 0.500 F 0.360 0.261 20.9 V 0.70 0.24 o 691 0.61 Yes Yes
2016RL20 O C H 2016-09-10.36695 1.000E-05 01:24:08.700 1.500E-01 0.500 F -0.251 0.109 -12° 26' 50.10" 1.000E-01 0.500 F 0.181 0.578 20.8 V 0.70 -0.14 o 691 1.20 Yes Yes
2016PN8 O C H 2016-09-10.36928 1.000E-05 01:16:16.870 1.500E-01 0.500 F -0.251 0.190 -12° 20' 13.80" 1.000E-01 0.500 F 0.124 -0.930 20.8 V 0.70 -0.11 o 691 1.91 Yes Yes
2016QR44 O C H 2016-09-10.37481 1.000E-05 01:21:16.400 1.500E-01 0.500 F -0.255 -0.069 +11° 51' 48.50" 1.000E-01 0.500 F 0.360 -0.414 21.0 V 0.70 0.34 o 691 0.88 Yes Yes
2016RL20 O C H 2016-09-10.37737 1.000E-05 01:24:07.930 1.500E-01 0.500 F -0.251 -0.589 -12° 26' 10.30" 1.000E-01 0.500 F 0.181 0.724 20.8 V 0.70 -0.14 o 691 1.92 Yes Yes
2008TZ3 O C 2016-09-10.39953 1.000E-05 01:31:37.610 1.500E-01 0.612 F -0.295 -0.035 -15° 09' 00.70" 1.000E-01 0.612 F 0.181 0.279 20.1 V 0.70 -0.23 o 691 0.46 Yes Yes
2008TZ3 O C H 2016-09-10.40186 1.000E-05 01:31:37.240 1.500E-01 0.612 F -0.295 -0.336 -15° 09' 00.90" 1.000E-01 0.612 F 0.181 -0.278 20.3 V 0.70 -0.03 o 691 0.71 Yes Yes
2008TZ3 O C 2016-09-10.40586 1.000E-05 01:31:36.670 1.500E-01 0.612 F -0.295 0.092 -15° 08' 59.80" 1.000E-01 0.612 F 0.181 0.206 20.3 V 0.70 -0.03 o 691 0.37 Yes Yes
2008TZ3 O C H 2016-09-10.40817 1.000E-05 01:31:36.310 1.500E-01 0.612 F -0.295 -0.107 -15° 08' 59.40" 1.000E-01 0.612 F 0.181 0.249 20.4 V 0.70 0.07 o 691 0.44 Yes Yes
2008TZ3 O C 2016-09-10.41215 1.000E-05 01:31:35.720 1.500E-01 0.612 F -0.295 -0.012 -15° 08' 58.80" 1.000E-01 0.612 F 0.181 0.231 20.1 V 0.70 -0.23 o 691 0.38 Yes Yes
2008TZ3 O C H 2016-09-10.41445 1.000E-05 01:31:35.350 1.500E-01 0.612 F -0.295 -0.378 -15° 08' 58.40" 1.000E-01 0.612 F 0.181 0.272 20.3 V 0.70 -0.03 o 691 0.76 Yes Yes
2016QF44 O C H 2016-09-10.45942 1.000E-05 02:22:39.250 1.500E-01 0.500 F -0.269 -0.346 +07° 17' 28.00" 1.000E-01 0.500 F 0.373 0.167 20.6 V 0.70 -0.37 o 691 0.77 Yes Yes
2016QD O C H 2016-09-10.46170 1.000E-05 03:36:04.470 1.500E-01 0.500 F -0.254 0.084 +10° 14' 47.30" 1.000E-01 0.500 F 0.244 0.016 19.3 V 0.70 0.24 o 691 0.17 Yes Yes
2016QF44 O C H 2016-09-10.46613 1.000E-05 02:22:40.430 1.500E-01 0.500 F -0.269 0.168 +07° 17' 29.70" 1.000E-01 0.500 F 0.373 -0.529 20.5 V 0.70 -0.47 o 691 1.12 Yes Yes
2016QD O C H 2016-09-10.46844 1.000E-05 03:36:05.320 1.500E-01 0.500 F -0.254 -0.085 +10° 15' 03.50" 1.000E-01 0.500 F 0.244 -0.072 19.3 V 0.70 0.24 o 691 0.22 Yes Yes
2016QF44 O C H 2016-09-10.47286 1.000E-05 02:22:41.550 1.500E-01 0.500 F -0.269 -0.268 +07° 17' 32.70" 1.000E-01 0.500 F 0.373 0.073 21.0 V 0.70 0.03 o 691 0.56 Yes Yes
2016QD O C H 2016-09-10.47517 1.000E-05 03:36:06.170 1.500E-01 0.500 F -0.254 -0.229 +10° 15' 19.70" 1.000E-01 0.500 F 0.244 -0.129 19.3 V 0.70 0.24 o 691 0.53 Yes Yes
2016RG40 O C 2016-09-12.16062 1.000E-05 22:17:44.440 1.500E-01 0.500 F -0.120 -2.203 +20° 09' 46.30" 1.000E-01 0.500 F 0.250 -0.271 21.1 V 0.70 0.46 o 691 4.34 No Yes
2016RG40 O C 2016-09-12.17356 1.000E-05 22:17:43.700 1.500E-01 0.500 F -0.120 -0.097 +20° 09' 40.50" 1.000E-01 0.500 F 0.250 -0.018 20.9 V 0.70 0.26 o 691 0.20 Yes Yes
2016RG40 O C 2016-09-12.18648 1.000E-05 22:17:42.800 1.500E-01 0.500 F -0.120 -0.234 +20° 09' 34.20" 1.000E-01 0.500 F 0.250 -0.251 20.9 V 0.70 0.26 o 691 0.70 Yes Yes
1998QK56 O C 2016-09-12.22249 1.000E-05 23:36:38.640 1.500E-01 0.500 F -0.121 -0.121 -01° 22' 23.70" 1.000E-01 0.500 F 0.327 -0.167 18.3 V 0.70 0.24 o 691 0.41 Yes Yes
2016RW33 O C 2016-09-12.22249 1.000E-05 23:40:03.820 1.500E-01 0.500 F -0.193 -0.410 -01° 17' 59.40" 1.000E-01 0.500 F 0.282 0.069 20.2 V 0.70 0.23 o 691 0.84 Yes Yes
1998QK56 O C 2016-09-12.22481 1.000E-05 23:36:38.470 1.500E-01 0.500 F -0.121 -0.086 -01° 22' 26.80" 1.000E-01 0.500 F 0.327 0.054 18.4 V 0.70 0.34 o 691 0.20 Yes Yes
2016RW33 O C 2016-09-12.22481 1.000E-05 23:40:03.500 1.500E-01 0.500 F -0.193 -0.289 -01° 17' 57.70" 1.000E-01 0.500 F 0.282 -0.373 20.2 V 0.70 0.23 o 691 0.95 Yes Yes
1998QK56 O C 2016-09-12.22711 1.000E-05 23:36:38.290 1.500E-01 0.500 F -0.121 -0.222 -01° 22' 30.20" 1.000E-01 0.500 F 0.327 -0.053 18.4 V 0.70 0.34 o 691 0.45 Yes Yes
2016RW33 O C 2016-09-12.22711 1.000E-05 23:40:03.160 1.500E-01 0.500 F -0.193 -0.509 -01° 17' 54.70" 1.000E-01 0.500 F 0.282 0.503 20.2 V 0.70 0.23 o 691 1.44 Yes Yes
2016RZ40 O C 2016-09-12.24889 1.000E-05 23:57:21.400 1.500E-01 0.500 F -0.305 -0.680 -06° 01' 01.60" 1.000E-01 0.500 F 0.291 0.138 20.7 V 0.70 0.23 o 691 1.40 Yes Yes
2016RZ40 O C 2016-09-12.25259 1.000E-05 23:57:21.730 1.500E-01 0.500 F -0.305 -0.336 -06° 00' 59.50" 1.000E-01 0.500 F 0.291 -0.075 21.2 V 0.70 0.73 o 691 0.70 Yes Yes
2016RZ40 O C 2016-09-12.25630 1.000E-05 23:57:22.030 1.500E-01 0.500 F -0.305 -0.444 -06° 00' 57.50" 1.000E-01 0.500 F 0.291 -0.397 20.9 V 0.70 0.43 o 691 1.21 Yes Yes
2016QB2 O C 2016-09-12.26926 1.000E-05 23:57:46.140 1.500E-01 0.500 F -0.177 0.118 +03° 11' 04.50" 1.000E-01 0.500 F 0.258 -0.644 19.9 V 0.70 0.05 o 691 1.33 Yes Yes
2016QB2 O C 2016-09-12.27157 1.000E-05 23:57:46.590 1.500E-01 0.500 F -0.177 -0.874 +03° 11' 02.40" 1.000E-01 0.500 F 0.258 0.279 19.9 V 0.70 0.05 o 691 1.86 Yes Yes
2016QB2 O C 2016-09-12.27387 1.000E-05 23:57:47.110 1.500E-01 0.500 F -0.177 -0.779 +03° 10' 58.90" 1.000E-01 0.500 F 0.258 -0.209 20.1 V 0.70 0.25 o 691 1.63 Yes Yes
2003SR15 O C 2016-09-28.22938 1.000E-05 21:47:52.170 1.500E-01 0.500 F -0.024 -0.015 -27° 16' 36.40" 1.000E-01 0.500 F 0.424 0.229 o 691 0.48 Yes No
2003SR15 O C 2016-09-28.23169 1.000E-05 21:47:51.950 1.500E-01 0.500 F -0.024 -0.033 -27° 16' 58.20" 1.000E-01 0.500 F 0.424 0.206 o 691 0.44 Yes No
2008CJ116 O C H 2016-09-30.17198 1.000E-05 21:37:27.570 1.500E-01 0.500 F 0.099 0.260 +22° 49' 22.10" 1.000E-01 0.500 F 0.298 -0.298 o 691 0.79 Yes No
2008CJ116 O C H 2016-09-30.17426 1.000E-05 21:37:27.430 1.500E-01 0.500 F 0.099 0.056 +22° 49' 29.10" 1.000E-01 0.500 F 0.298 -0.172 o 691 0.36 Yes No
2008CJ116 O C H 2016-09-30.17657 1.000E-05 21:37:27.330 1.500E-01 0.500 F 0.099 0.427 +22° 49' 35.90" 1.000E-01 0.500 F 0.298 -0.334 o 691 1.09 Yes No
2010JD87 O C H 2016-09-30.18395 1.000E-05 21:42:29.530 1.500E-01 0.500 F 0.013 0.066 +11° 49' 16.00" 1.000E-01 0.500 F 0.169 0.031 20.1 V 0.70 0.21 o 691 0.15 Yes Yes
2010JD87 O C H 2016-09-30.18625 1.000E-05 21:42:28.890 1.500E-01 0.500 F 0.013 0.120 +11° 49' 16.60" 1.000E-01 0.500 F 0.169 -0.099 20.4 V 0.70 0.51 o 691 0.31 Yes Yes
2010JD87 O C H 2016-09-30.18856 1.000E-05 21:42:28.230 1.500E-01 0.500 F 0.013 -0.079 +11° 49' 17.30" 1.000E-01 0.500 F 0.169 -0.131 20.7 V 0.70 0.81 o 691 0.31 Yes Yes
1998SD15 O C H 2016-09-30.19065 1.000E-05 21:31:20.030 1.500E-01 0.500 F -0.192 0.004 -05° 36' 32.30" 1.000E-01 0.500 F 0.274 -0.157 17.2 V 0.70 0.22 o 691 0.31 Yes Yes
2016NG23 O C H 2016-09-30.19268 1.000E-05 21:40:12.480 1.500E-01 0.500 F 0.080 -0.329 +02° 52' 48.60" 1.000E-01 0.500 F 0.270 0.048 20.9 V 0.70 0.31 o 691 0.67 Yes Yes
1998SD15 O C H 2016-09-30.19469 1.000E-05 21:31:20.790 1.500E-01 0.500 F -0.192 -0.019 -05° 37' 06.50" 1.000E-01 0.500 F 0.274 0.147 17.2 V 0.70 0.22 o 691 0.30 Yes Yes
2016NG23 O C H 2016-09-30.19672 1.000E-05 21:40:13.070 1.500E-01 0.500 F 0.080 -0.115 +02° 52' 46.20" 1.000E-01 0.500 F 0.270 -0.110 20.3 V 0.70 -0.29 o 691 0.32 Yes Yes
1998SD15 O C H 2016-09-30.19872 1.000E-05 21:31:21.550 1.500E-01 0.500 F -0.192 -0.014 -05° 37' 41.00" 1.000E-01 0.500 F 0.274 0.052 17.2 V 0.70 0.22 o 691 0.11 Yes Yes
2016NG23 O C H 2016-09-30.20075 1.000E-05 21:40:13.660 1.500E-01 0.500 F 0.080 0.120 +02° 52' 44.00" 1.000E-01 0.500 F 0.270 -0.074 20.7 V 0.70 0.11 o 691 0.28 Yes Yes
2000GW127 O C H 2016-09-30.20545 1.000E-05 21:41:02.680 1.500E-01 0.500 F -0.001 0.299 -27° 55' 30.70" 1.000E-01 0.500 F 0.377 0.236 20.4 V 0.70 0.41 o 691 0.79 Yes Yes
2000GW127 O C H 2016-09-30.20776 1.000E-05 21:41:02.180 1.500E-01 0.500 F -0.001 -0.194 -27° 55' 34.10" 1.000E-01 0.500 F 0.377 -0.069 20.4 V 0.70 0.41 o 691 0.42 Yes Yes
2000GW127 O C H 2016-09-30.21007 1.000E-05 21:41:01.750 1.500E-01 0.500 F -0.001 0.240 -27° 55' 37.00" 1.000E-01 0.500 F 0.377 0.125 20.4 V 0.70 0.41 o 691 0.56 Yes Yes
2016QE45 O C H 2016-09-30.21430 1.000E-05 22:20:32.070 1.500E-01 0.500 F -0.262 -0.547 -20° 39' 35.80" 1.000E-01 0.500 F 0.078 -0.156 20.0 V 0.70 0.37 o 691 1.14 Yes Yes
2016LZ10 O C H 2016-09-30.21884 1.000E-05 22:06:12.920 1.500E-01 0.500 F -0.037 -0.033 +04° 10' 55.90" 1.000E-01 0.500 F 0.332 -0.034 18.9 V 0.70 0.07 o 691 0.09 Yes Yes
2016QE45 O C H 2016-09-30.22119 1.000E-05 22:20:28.430 1.500E-01 0.500 F -0.262 -0.398 -20° 39' 49.00" 1.000E-01 0.500 F 0.078 0.227 19.8 V 0.70 0.17 o 691 0.92 Yes Yes
2016LZ10 O C H 2016-09-30.22573 1.000E-05 22:06:14.380 1.500E-01 0.500 F -0.037 0.118 +04° 10' 51.90" 1.000E-01 0.500 F 0.332 -0.376 18.7 V 0.70 -0.13 o 691 0.79 Yes Yes
2016QE45 O C H 2016-09-30.22807 1.000E-05 22:20:24.800 1.500E-01 0.500 F -0.262 -0.168 -20° 40' 03.70" 1.000E-01 0.500 F 0.078 -0.941 o 691 1.92 Yes No
2016LZ10 O C H 2016-09-30.23260 1.000E-05 22:06:15.840 1.500E-01 0.500 F -0.037 0.328 +04° 10' 48.70" 1.000E-01 0.500 F 0.332 0.074 19.1 V 0.70 0.27 o 691 0.68 Yes Yes
2016RG40 O C H 2016-09-30.23657 1.000E-05 22:00:47.550 1.500E-01 0.500 F -0.058 0.120 +16° 28' 19.70" 1.000E-01 0.500 F 0.356 -0.567 o 691 1.17 Yes No
2016RB18 O C H 2016-09-30.23958 1.000E-05 22:43:59.050 1.500E-01 0.500 F -0.088 0.253 +14° 48' 34.70" 1.000E-01 0.500 F 0.371 -0.820 19.8 V 0.70 0.00 o 691 1.74 Yes Yes
2016RP33 O C H 2016-09-30.24258 1.000E-05 23:26:43.230 1.500E-01 0.500 F -0.276 -0.033 +14° 16' 18.00" 1.000E-01 0.500 F 0.161 -0.382 17.8 V 0.70 0.02 o 691 0.77 Yes Yes
2016RG40 O C H 2016-09-30.24732 1.000E-05 22:00:47.090 1.500E-01 0.500 F -0.058 0.426 +16° 28' 09.70" 1.000E-01 0.500 F 0.356 -0.262 o 691 1.01 Yes No
2016RB18 O C H 2016-09-30.25034 1.000E-05 22:44:02.290 1.500E-01 0.500 F -0.088 0.396 +14° 48' 10.80" 1.000E-01 0.500 F 0.371 -0.933 19.4 V 0.70 -0.40 o 691 2.05 Yes Yes
2016RP33 O C H 2016-09-30.25333 1.000E-05 23:26:42.110 1.500E-01 0.500 F -0.276 0.160 +14° 17' 16.00" 1.000E-01 0.500 F 0.161 -0.178 17.8 V 0.70 0.02 o 691 0.48 Yes Yes
2016QJ10 O C H 2016-09-30.27090 1.000E-05 23:36:51.420 1.500E-01 0.500 F -0.113 -0.190 +00° 12' 00.50" 1.000E-01 0.500 F 0.256 -0.168 20.4 V 0.70 0.45 o 691 0.52 Yes Yes
2016QJ10 O C H 2016-09-30.27318 1.000E-05 23:36:51.680 1.500E-01 0.500 F -0.113 0.321 +00° 12' 00.60" 1.000E-01 0.500 F 0.256 0.343 20.1 V 0.70 0.15 o 691 0.95 Yes Yes
2016QJ10 O C H 2016-09-30.27549 1.000E-05 23:36:51.890 1.500E-01 0.500 F -0.113 0.036 +00° 11' 59.20" 1.000E-01 0.500 F 0.256 -0.640 o 691 1.29 Yes No
2016RW40 O C H 2016-09-30.28693 1.000E-05 00:07:45.400 1.500E-01 0.500 F -0.073 -0.006 +02° 48' 50.20" 1.000E-01 0.500 F 0.384 -1.052 o 691 2.15 Yes No
2016RW40 O C H 2016-09-30.28926 1.000E-05 00:07:44.950 1.500E-01 0.500 F -0.073 0.920 +02° 48' 57.20" 1.000E-01 0.500 F 0.384 -1.357 o 691 3.17 No No
2016RW40 O C H 2016-09-30.29157 1.000E-05 00:07:44.400 1.500E-01 0.500 F -0.073 0.282 +02° 49' 04.80" 1.000E-01 0.500 F 0.384 -0.999 o 691 2.14 Yes No
2010SG15 O C H 2016-09-30.29392 1.000E-05 00:20:02.120 1.500E-01 0.500 F -0.118 -0.145 +01° 17' 45.60" 1.000E-01 0.500 F 0.315 -0.687 o 691 1.41 Yes No
2010SG15 O C H 2016-09-30.29626 1.000E-05 00:20:02.940 1.500E-01 0.500 F -0.118 0.441 +01° 17' 49.40" 1.000E-01 0.500 F 0.315 -0.776 o 691 1.79 Yes No
2010SG15 O C H 2016-09-30.29855 1.000E-05 00:20:03.700 1.500E-01 0.500 F -0.118 0.378 +01° 17' 53.60" 1.000E-01 0.500 F 0.315 -0.381 o 691 1.08 Yes No
2006FX O C H 2016-09-30.30153 1.000E-05 00:39:53.480 1.500E-01 0.500 F -0.410 0.208 -05° 16' 36.90" 1.000E-01 0.500 F 0.172 -0.625 o 691 1.33 Yes No
2008SS251 O C 2016-09-30.30153 1.000E-05 00:38:38.300 1.500E-01 0.500 F -0.398 -0.123 -04° 45' 40.30" 1.000E-01 0.500 F 0.168 0.056 19.1 V 0.70 0.16 o 691 0.27 Yes Yes
2006FX O C H 2016-09-30.30382 1.000E-05 00:39:53.300 1.500E-01 0.500 F -0.410 0.410 -05° 16' 44.30" 1.000E-01 0.500 F 0.172 -0.169 o 691 0.89 Yes No
2008SS251 O C 2016-09-30.30382 1.000E-05 00:38:38.570 1.500E-01 0.500 F -0.398 0.118 -04° 45' 40.70" 1.000E-01 0.500 F 0.168 0.323 19.2 V 0.70 0.26 o 691 0.69 Yes Yes
2006FX O C H 2016-09-30.30610 1.000E-05 00:39:53.100 1.500E-01 0.500 F -0.410 0.301 -05° 16' 53.00" 1.000E-01 0.500 F 0.172 -1.047 o 691 2.19 Yes No
2008SS251 O C 2016-09-30.30610 1.000E-05 00:38:38.830 1.500E-01 0.500 F -0.398 0.227 -04° 45' 41.60" 1.000E-01 0.500 F 0.168 0.087 19.2 V 0.70 0.26 o 691 0.49 Yes Yes
2008TZ3 O C H 2016-09-30.31059 1.000E-05 00:44:24.060 1.500E-01 0.500 F -0.362 0.168 -13° 18' 40.20" 1.000E-01 0.500 F 0.191 0.289 20.5 V 0.70 0.06 o 691 0.67 Yes Yes
2008TZ3 O C H 2016-09-30.31288 1.000E-05 00:44:23.690 1.500E-01 0.500 F -0.362 -0.732 -13° 18' 39.00" 1.000E-01 0.500 F 0.191 0.322 20.5 V 0.70 0.06 o 691 1.60 Yes Yes
2008TZ3 O C H 2016-09-30.31517 1.000E-05 00:44:23.400 1.500E-01 0.500 F -0.362 -0.463 -13° 18' 38.10" 1.000E-01 0.500 F 0.191 0.054 20.5 V 0.70 0.06 o 691 0.93 Yes Yes
2016RQ20 O C H 2016-09-30.31858 1.000E-05 00:45:17.380 1.500E-01 0.500 F -0.318 -0.196 -01° 08' 36.60" 1.000E-01 0.500 F 0.370 -0.200 20.7 V 0.70 0.50 o 691 0.56 Yes Yes
2016RQ20 O C H 2016-09-30.32086 1.000E-05 00:45:17.190 1.500E-01 0.500 F -0.318 -0.188 -01° 08' 31.10" 1.000E-01 0.500 F 0.370 -0.095 20.5 V 0.70 0.30 o 691 0.42 Yes Yes
2016RQ20 O C H 2016-09-30.32316 1.000E-05 00:45:16.990 1.500E-01 0.500 F -0.318 -0.305 -01° 08' 25.80" 1.000E-01 0.500 F 0.370 -0.238 20.4 V 0.70 0.20 o 691 0.78 Yes Yes
2016RD20 O C H 2016-09-30.34036 1.000E-05 01:25:54.060 1.500E-01 0.500 F -0.189 0.190 -02° 53' 34.50" 1.000E-01 0.500 F 0.149 -0.633 o 691 1.34 Yes No
2016RD20 O C H 2016-09-30.34236 1.000E-05 01:25:54.880 1.500E-01 0.500 F -0.189 -0.129 -02° 53' 30.40" 1.000E-01 0.500 F 0.149 -0.537 o 691 1.12 Yes No
2016RD20 O C H 2016-09-30.34438 1.000E-05 01:25:55.760 1.500E-01 0.500 F -0.189 0.327 -02° 53' 26.40" 1.000E-01 0.500 F 0.149 -0.582 o 691 1.35 Yes No
2005TF O C H 2016-09-30.35462 1.000E-05 01:41:35.340 1.500E-01 0.500 F -0.192 -0.152 +05° 43' 17.50" 1.000E-01 0.500 F 0.192 -0.042 19.1 V 0.70 0.37 o 691 0.32 Yes Yes
2005TF O C H 2016-09-30.35694 1.000E-05 01:41:35.450 1.500E-01 0.500 F -0.192 -0.005 +05° 43' 19.50" 1.000E-01 0.500 F 0.192 -0.023 19.1 V 0.70 0.37 o 691 0.05 Yes Yes
2005TF O C H 2016-09-30.35925 1.000E-05 01:41:35.550 1.500E-01 0.500 F -0.192 -0.001 +05° 43' 21.60" 1.000E-01 0.500 F 0.192 0.105 19.2 V 0.70 0.47 o 691 0.21 Yes Yes
2016SA2 O C H 2016-09-30.36355 1.000E-05 01:47:54.560 1.500E-01 0.500 F -0.319 -0.228 -15° 36' 49.30" 1.000E-01 0.500 F 0.189 -0.135 20.4 V 0.70 0.06 o 691 0.53 Yes Yes
2016SE1 O C H 2016-09-30.36582 1.000E-05 01:56:41.240 1.500E-01 0.500 F -0.364 -0.078 -11° 00' 08.70" 1.000E-01 0.500 F 0.154 0.443 o 691 0.91 Yes No
2016RU O C H 2016-09-30.36823 1.000E-05 02:03:06.180 1.500E-01 0.500 F -0.531 -0.165 -30° 18' 25.00" 1.000E-01 0.500 F 0.207 0.443 19.8 V 0.70 0.11 o 691 0.95 Yes Yes
2016SA2 O C H 2016-09-30.37051 1.000E-05 01:47:55.550 1.500E-01 0.500 F -0.319 -0.068 -15° 37' 01.00" 1.000E-01 0.500 F 0.189 -0.446 20.3 V 0.70 -0.04 o 691 0.91 Yes Yes
2016SE1 O C H 2016-09-30.37282 1.000E-05 01:56:39.870 1.500E-01 0.500 F -0.364 0.498 -10° 59' 39.20" 1.000E-01 0.500 F 0.154 -0.442 o 691 1.35 Yes No
2016RU O C H 2016-09-30.37523 1.000E-05 02:03:06.930 1.500E-01 0.500 F -0.531 -0.194 -30° 18' 57.40" 1.000E-01 0.500 F 0.207 0.452 19.8 V 0.70 0.11 o 691 0.99 Yes Yes
2016SA2 O C H 2016-09-30.37752 1.000E-05 01:47:56.570 1.500E-01 0.500 F -0.319 0.398 -15° 37' 12.10" 1.000E-01 0.500 F 0.189 -0.357 20.3 V 0.70 -0.04 o 691 1.07 Yes Yes
2016SE1 O C H 2016-09-30.37983 1.000E-05 01:56:38.460 1.500E-01 0.500 F -0.364 0.500 -10° 59' 08.70" 1.000E-01 0.500 F 0.154 -0.383 o 691 1.28 Yes No
2016RU O C H 2016-09-30.38223 1.000E-05 02:03:07.710 1.500E-01 0.500 F -0.531 0.164 -30° 19' 30.30" 1.000E-01 0.500 F 0.207 -0.060 19.9 V 0.70 0.21 o 691 0.35 Yes Yes
2016SJ35 O C H 2016-09-30.38541 1.000E-05 02:29:00.930 1.500E-01 0.500 F -0.396 -0.311 -30° 29' 20.60" 1.000E-01 0.500 F 0.198 0.028 19.5 V 0.70 -0.04 o 691 0.64 Yes Yes
2016SJ35 O C H 2016-09-30.38774 1.000E-05 02:29:01.310 1.500E-01 0.500 F -0.396 -0.415 -30° 29' 21.30" 1.000E-01 0.500 F 0.198 0.001 19.6 V 0.70 0.06 o 691 0.85 Yes Yes
2016SJ35 O C H 2016-09-30.39005 1.000E-05 02:29:01.700 1.500E-01 0.500 F -0.396 -0.342 -30° 29' 21.90" 1.000E-01 0.500 F 0.198 0.049 19.6 V 0.70 0.06 o 691 0.70 Yes Yes
2005SF O C H 2016-09-30.39322 1.000E-05 02:19:19.940 1.500E-01 0.500 F -0.208 0.189 -14° 11' 44.40" 1.000E-01 0.500 F 0.107 -0.218 o 691 0.58 Yes No
2005SF O C H 2016-09-30.39549 1.000E-05 02:19:19.610 1.500E-01 0.500 F -0.208 0.854 -14° 11' 45.80" 1.000E-01 0.500 F 0.107 -0.460 o 691 1.95 Yes No
2005SF O C H 2016-09-30.39780 1.000E-05 02:19:19.180 1.500E-01 0.500 F -0.208 0.161 -14° 11' 47.00" 1.000E-01 0.500 F 0.107 -0.484 o 691 1.03 Yes No
2016SG17 O C H 2016-09-30.40312 1.000E-05 02:36:16.040 1.500E-01 0.500 F -0.248 0.493 +04° 13' 30.90" 1.000E-01 0.500 F 0.218 -0.768 o 691 1.83 Yes No
2016SG17 O C H 2016-09-30.40731 1.000E-05 02:36:14.400 1.500E-01 0.500 F -0.248 0.694 +04° 13' 49.90" 1.000E-01 0.500 F 0.218 -0.376 o 691 1.58 Yes No
2016SG17 O C H 2016-09-30.41151 1.000E-05 02:36:12.740 1.500E-01 0.500 F -0.248 0.657 +04° 14' 08.30" 1.000E-01 0.500 F 0.218 -0.629 o 691 1.82 Yes No
2016SJ1 O C H 2016-09-30.41403 1.000E-05 03:11:33.470 1.500E-01 0.500 F -0.349 -0.398 -16° 07' 54.90" 1.000E-01 0.500 F 0.107 -0.608 o 691 1.46 Yes No
2016SJ1 O C H 2016-09-30.41600 1.000E-05 03:11:34.450 1.500E-01 0.500 F -0.349 0.160 -16° 07' 55.60" 1.000E-01 0.500 F 0.107 -0.899 o 691 1.83 Yes No
2016SJ1 O C H 2016-09-30.41799 1.000E-05 03:11:35.420 1.500E-01 0.500 F -0.349 0.434 -16° 07' 55.70" 1.000E-01 0.500 F 0.107 -0.588 o 691 1.47 Yes No
2016RF40 O C H 2016-09-30.42148 1.000E-05 03:27:20.360 1.500E-01 0.500 F -0.117 0.339 -04° 55' 06.50" 1.000E-01 0.500 F 0.040 -0.943 o 691 2.02 Yes No
2016RF40 O C H 2016-09-30.42572 1.000E-05 03:27:21.120 1.500E-01 0.500 F -0.117 0.569 -04° 55' 33.70" 1.000E-01 0.500 F 0.040 -0.845 o 691 2.05 Yes No
2016RF40 O C H 2016-09-30.42997 1.000E-05 03:27:21.850 1.500E-01 0.500 F -0.117 0.325 -04° 56' 00.20" 1.000E-01 0.500 F 0.040 0.016 o 691 0.65 Yes No
2016RA18 O C H 2016-09-30.43627 1.000E-05 01:30:17.820 1.500E-01 0.500 F -0.069 -0.411 +10° 18' 29.00" 1.000E-01 0.500 F 0.334 -0.294 o 691 1.05 Yes No
2016RA18 O C H 2016-09-30.43860 1.000E-05 01:30:18.310 1.500E-01 0.500 F -0.069 0.368 +10° 18' 24.10" 1.000E-01 0.500 F 0.334 -0.682 o 691 1.61 Yes No
2016RA18 O C H 2016-09-30.44090 1.000E-05 01:30:18.750 1.500E-01 0.500 F -0.069 0.488 +10° 18' 19.60" 1.000E-01 0.500 F 0.334 -0.726 o 691 1.82 Yes No
2005CL O C H 2016-09-30.45131 1.000E-05 01:43:28.520 1.500E-01 0.500 F -0.144 0.001 +26° 08' 35.20" 1.000E-01 0.500 F 0.337 -0.682 19.5 V 0.70 0.01 o 691 1.38 Yes Yes
2005CL O C H 2016-09-30.45359 1.000E-05 01:43:27.760 1.500E-01 0.500 F -0.144 0.436 +26° 08' 29.90" 1.000E-01 0.500 F 0.337 -0.503 19.3 V 0.70 -0.19 o 691 1.35 Yes Yes
2005CL O C H 2016-09-30.45587 1.000E-05 01:43:26.980 1.500E-01 0.500 F -0.144 0.597 +26° 08' 24.40" 1.000E-01 0.500 F 0.337 -0.522 19.4 V 0.70 -0.09 o 691 1.61 Yes Yes
2015SO2 O C H 2016-09-30.48464 1.000E-05 05:35:57.820 1.500E-01 0.559 F 0.049 0.432 -02° 25' 40.30" 1.000E-01 0.559 F 0.000 -0.700 19.0 V 0.70 -0.70 o 691 1.54 Yes Yes
2015SO2 O C H 2016-09-30.48692 1.000E-05 05:35:59.130 1.500E-01 0.559 F 0.049 -0.222 -02° 26' 08.40" 1.000E-01 0.559 F 0.000 0.413 19.0 V 0.70 -0.70 o 691 0.88 Yes Yes
2015SO2 O C H 2016-09-30.49684 1.000E-05 05:36:05.040 1.500E-01 0.559 F 0.049 0.154 -02° 28' 16.30" 1.000E-01 0.559 F 0.000 -0.402 18.8 V 0.70 -0.90 o 691 0.80 Yes Yes
2015SO2 O C H 2016-09-30.49912 1.000E-05 05:36:06.320 1.500E-01 0.559 F 0.049 -0.920 -02° 28' 44.40" 1.000E-01 0.559 F 0.000 0.702 18.6 V 0.70 -1.10 o 691 2.18 Yes Yes
2015SO2 O C H 2016-09-30.50139 1.000E-05 05:36:07.800 1.500E-01 0.559 F 0.049 1.096 -02° 29' 16.40" 1.000E-01 0.559 F 0.000 -2.224 o 691 4.26 No No
1998SD15 O C H 2016-10-01.14402 1.000E-05 21:34:34.240 1.500E-01 0.559 F -0.111 -0.264 -07° 46' 56.40" 1.000E-01 0.559 F 0.368 -0.024 17.4 V 0.70 0.32 o 691 0.48 Yes Yes
1998SD15 O C H 2016-10-01.14580 1.000E-05 21:34:34.570 1.500E-01 0.559 F -0.111 -0.127 -07° 47' 10.50" 1.000E-01 0.559 F 0.368 -0.090 17.4 V 0.70 0.31 o 691 0.28 Yes Yes
1998SD15 O C H 2016-10-01.14941 1.000E-05 21:34:35.250 1.500E-01 0.559 F -0.111 0.315 -07° 47' 40.00" 1.000E-01 0.559 F 0.368 -1.134 17.0 V 0.70 -0.09 o 691 2.11 Yes Yes
1998SD15 O C H 2016-10-01.15171 1.000E-05 21:34:35.660 1.500E-01 0.559 F -0.111 0.254 -07° 47' 57.70" 1.000E-01 0.559 F 0.368 -0.711 17.1 V 0.70 0.01 o 691 1.35 Yes Yes
1998SD15 O C H 2016-10-01.15402 1.000E-05 21:34:36.070 1.500E-01 0.559 F -0.111 0.169 -07° 48' 15.80" 1.000E-01 0.559 F 0.368 -0.614 17.0 V 0.70 -0.09 o 691 1.14 Yes Yes
2010JD87 O C H 2016-10-01.16168 1.000E-05 21:38:03.270 1.500E-01 0.500 F 0.072 0.207 +11° 54' 14.00" 1.000E-01 0.500 F 0.237 -0.831 19.7 V 0.70 -0.21 o 691 1.74 Yes Yes
2010JD87 O C H 2016-10-01.16399 1.000E-05 21:38:02.640 1.500E-01 0.500 F 0.072 0.390 +11° 54' 14.90" 1.000E-01 0.500 F 0.237 -0.618 20.0 V 0.70 0.09 o 691 1.48 Yes Yes
2010JD87 O C H 2016-10-01.16629 1.000E-05 21:38:01.970 1.500E-01 0.500 F 0.072 -0.055 +11° 54' 15.70" 1.000E-01 0.500 F 0.237 -0.501 20.5 V 0.70 0.59 o 691 1.02 Yes Yes
2016RG40 O C H 2016-10-01.16915 1.000E-05 22:00:10.860 1.500E-01 0.500 F -0.058 -0.162 +16° 13' 22.00" 1.000E-01 0.500 F 0.356 -0.439 20.8 V 0.70 0.33 o 691 0.95 Yes Yes
2016PJ66 O C 2016-10-01.16915 1.000E-05 22:01:13.690 1.500E-01 0.500 F -0.058 -0.481 +16° 45' 10.30" 1.000E-01 0.500 F 0.356 0.469 20.5 V 0.70 -0.01 o 691 1.37 Yes Yes
2016RG40 O C H 2016-10-01.17146 1.000E-05 22:00:10.790 1.500E-01 0.500 F -0.058 0.248 +16° 13' 20.00" 1.000E-01 0.500 F 0.356 -0.203 20.7 V 0.70 0.23 o 691 0.65 Yes Yes
2016PJ66 O C 2016-10-01.17146 1.000E-05 22:01:13.720 1.500E-01 0.500 F -0.058 -0.005 +16° 45' 17.80" 1.000E-01 0.500 F 0.356 0.030 20.7 V 0.70 0.19 o 691 0.06 Yes Yes
2016RG40 O C H 2016-10-01.17376 1.000E-05 22:00:10.670 1.500E-01 0.500 F -0.058 -0.069 +16° 13' 17.40" 1.000E-01 0.500 F 0.356 -0.576 20.7 V 0.70 0.23 o 691 1.17 Yes Yes
2016PJ66 O C 2016-10-01.17376 1.000E-05 22:01:13.720 1.500E-01 0.500 F -0.058 0.041 +16° 45' 25.60" 1.000E-01 0.500 F 0.356 -0.073 20.5 V 0.70 -0.01 o 691 0.17 Yes Yes
2016LZ10 O C H 2016-10-01.17805 1.000E-05 22:09:44.590 1.500E-01 0.500 F -0.003 -0.115 +04° 02' 34.50" 1.000E-01 0.500 F 0.358 -0.087 18.9 V 0.70 0.03 o 691 0.29 Yes Yes
2016LZ10 O C H 2016-10-01.18264 1.000E-05 22:09:45.540 1.500E-01 0.500 F -0.003 -0.102 +04° 02' 32.10" 1.000E-01 0.500 F 0.358 -0.130 18.9 V 0.70 0.03 o 691 0.33 Yes Yes
2016LZ10 O C H 2016-10-01.18726 1.000E-05 22:09:46.490 1.500E-01 0.500 F -0.003 -0.178 +04° 02' 29.80" 1.000E-01 0.500 F 0.358 -0.057 18.9 V 0.70 0.03 o 691 0.38 Yes Yes
2016QE45 O C H 2016-10-01.19378 1.000E-05 22:12:00.220 1.500E-01 0.500 F -0.171 -0.217 -21° 11' 32.60" 1.000E-01 0.500 F 0.089 -0.671 o 691 1.42 Yes No
2016QE45 O C H 2016-10-01.19539 1.000E-05 22:11:59.360 1.500E-01 0.500 F -0.171 0.289 -21° 11' 35.30" 1.000E-01 0.500 F 0.089 -0.240 o 691 0.75 Yes No
2016QE45 O C H 2016-10-01.19698 1.000E-05 22:11:58.420 1.500E-01 0.500 F -0.171 -0.479 -21° 11' 38.50" 1.000E-01 0.500 F 0.089 -0.349 o 691 1.19 Yes No
2016RB18 O C H 2016-10-01.20872 1.000E-05 22:49:07.010 1.500E-01 0.500 F -0.119 0.287 +14° 12' 45.00" 1.000E-01 0.500 F 0.310 -0.528 19.7 V 0.70 -0.09 o 691 1.22 Yes Yes
2016RB18 O C H 2016-10-01.21104 1.000E-05 22:49:07.680 1.500E-01 0.500 F -0.119 -0.063 +14° 12' 40.00" 1.000E-01 0.500 F 0.310 -0.375 19.8 V 0.70 0.01 o 691 0.77 Yes Yes
2016RB18 O C H 2016-10-01.21335 1.000E-05 22:49:08.380 1.500E-01 0.500 F -0.119 0.068 +14° 12' 34.50" 1.000E-01 0.500 F 0.310 -0.742 18.8 V 0.70 -0.99 o 691 1.51 Yes Yes
2016RP33 O C H 2016-10-01.21664 1.000E-05 23:25:15.340 1.500E-01 0.500 F -0.236 -0.102 +15° 41' 45.30" 1.000E-01 0.500 F 0.220 -0.629 18.3 V 0.70 0.43 o 691 1.28 Yes Yes
2016RP33 O C H 2016-10-01.21895 1.000E-05 23:25:15.110 1.500E-01 0.500 F -0.236 -0.064 +15° 41' 57.60" 1.000E-01 0.500 F 0.220 -0.265 18.3 V 0.70 0.43 o 691 0.55 Yes Yes
2016RP33 O C H 2016-10-01.22127 1.000E-05 23:25:14.870 1.500E-01 0.500 F -0.236 -0.155 +15° 42' 09.40" 1.000E-01 0.500 F 0.220 -0.450 18.2 V 0.70 0.33 o 691 0.96 Yes Yes
2016SR2 O C H 2016-10-01.23528 1.000E-05 23:40:16.670 1.500E-01 0.500 F -0.116 -2.624 -25° 16' 04.20" 1.000E-01 0.500 F 0.416 -2.149 19.5 V 0.70 0.15 o 691 6.77 No Yes
2016SR2 O C H 2016-10-01.24042 1.000E-05 23:40:11.180 1.500E-01 0.500 F -0.100 -0.495 -25° 16' 26.10" 1.000E-01 0.500 F 0.391 -0.817 18.7 V 0.70 -0.65 o 691 1.92 Yes Yes
2016SR2 O C H 2016-10-01.24555 1.000E-05 23:40:05.530 1.500E-01 0.500 F -0.100 -0.494 -25° 16' 49.40" 1.000E-01 0.500 F 0.391 -1.086 19.5 V 0.70 0.15 o 691 2.39 Yes Yes
2010SG15 O C H 2016-10-01.24970 1.000E-05 00:25:58.720 1.500E-01 0.500 F -0.108 -1.910 +01° 44' 34.00" 1.000E-01 0.500 F 0.332 -1.862 o 691 5.31 No No
2006FX O C H 2016-10-01.25199 1.000E-05 00:38:38.940 1.500E-01 0.500 F -0.425 0.276 -06° 11' 28.10" 1.000E-01 0.500 F 0.293 -1.959 o 691 3.93 No No
2008TZ3 O C H 2016-10-01.25432 1.000E-05 00:42:24.800 1.500E-01 0.500 F -0.362 -0.272 -13° 10' 31.70" 1.000E-01 0.500 F 0.191 0.238 20.7 V 0.70 0.23 o 691 0.72 Yes Yes
2016RQ20 O C H 2016-10-01.25661 1.000E-05 00:44:06.870 1.500E-01 0.500 F -0.365 -0.080 -00° 31' 11.40" 1.000E-01 0.500 F 0.335 -0.235 20.4 V 0.70 0.26 o 691 0.50 Yes Yes
2016RZ40 O C 2016-10-01.25661 1.000E-05 00:43:07.820 1.500E-01 0.500 F -0.202 0.204 +00° 06' 42.20" 1.000E-01 0.500 F 0.322 -0.201 19.4 V 0.70 0.32 o 691 0.58 Yes Yes
2010SG15 O C H 2016-10-01.25894 1.000E-05 00:26:01.990 1.500E-01 0.500 F -0.108 -0.666 +01° 44' 50.70" 1.000E-01 0.500 F 0.332 -0.970 o 691 2.37 Yes No
2006FX O C H 2016-10-01.26123 1.000E-05 00:38:38.110 1.500E-01 0.500 F -0.425 -0.184 -06° 11' 58.60" 1.000E-01 0.500 F 0.293 -0.154 19.9 V 0.70 0.33 o 691 0.48 Yes Yes
2008TZ3 O C H 2016-10-01.26353 1.000E-05 00:42:23.600 1.500E-01 0.500 F -0.362 -0.103 -13° 10' 27.00" 1.000E-01 0.500 F 0.191 0.169 20.8 V 0.70 0.33 o 691 0.40 Yes Yes
2016RQ20 O C H 2016-10-01.26586 1.000E-05 00:44:06.090 1.500E-01 0.500 F -0.365 0.035 -00° 30' 49.40" 1.000E-01 0.500 F 0.335 -0.625 20.4 V 0.70 0.27 o 691 1.26 Yes Yes
2016RZ40 O C 2016-10-01.26586 1.000E-05 00:43:09.620 1.500E-01 0.500 F -0.202 -0.144 +00° 06' 59.80" 1.000E-01 0.500 F 0.322 -0.236 19.4 V 0.70 0.32 o 691 0.56 Yes Yes
2010SG15 O C H 2016-10-01.26817 1.000E-05 00:26:05.260 1.500E-01 0.500 F -0.108 0.686 +01° 45' 08.20" 1.000E-01 0.500 F 0.332 0.743 o 691 2.03 Yes No
2006FX O C H 2016-10-01.27047 1.000E-05 00:38:37.310 1.500E-01 0.500 F -0.425 -0.177 -06° 12' 30.70" 1.000E-01 0.500 F 0.293 0.050 20.0 V 0.70 0.43 o 691 0.37 Yes Yes
2008TZ3 O C H 2016-10-01.27277 1.000E-05 00:42:22.360 1.500E-01 0.500 F -0.362 -0.449 -13° 10' 22.20" 1.000E-01 0.500 F 0.191 0.172 20.8 V 0.70 0.33 o 691 0.96 Yes Yes
2016RQ20 O C H 2016-10-01.27511 1.000E-05 00:44:05.310 1.500E-01 0.500 F -0.365 0.173 -00° 30' 26.60" 1.000E-01 0.500 F 0.335 -0.221 20.5 V 0.70 0.37 o 691 0.57 Yes Yes
2016RZ40 O C 2016-10-01.27511 1.000E-05 00:43:11.530 1.500E-01 0.500 F -0.202 1.192 +00° 07' 16.60" 1.000E-01 0.500 F 0.322 -1.078 19.1 V 0.70 0.02 o 691 3.20 No Yes
2016QB2 O C H 2016-10-01.29480 1.000E-05 01:26:45.120 1.500E-01 0.500 F -0.422 -0.567 -05° 21' 41.90" 1.000E-01 0.500 F 0.087 0.122 20.2 V 0.70 0.43 o 691 1.17 Yes Yes
2016QB2 O C H 2016-10-01.29945 1.000E-05 01:26:46.240 1.500E-01 0.500 F -0.422 -0.259 -05° 21' 49.40" 1.000E-01 0.500 F 0.087 0.048 20.2 V 0.70 0.43 o 691 0.53 Yes Yes
2016RD20 O C H 2016-10-01.30179 1.000E-05 01:33:01.430 1.500E-01 0.500 F -0.235 -0.153 -02° 22' 06.30" 1.000E-01 0.500 F 0.149 -0.843 o 691 1.73 Yes No
2016QB2 O C H 2016-10-01.30414 1.000E-05 01:26:47.350 1.500E-01 0.500 F -0.422 -0.219 -05° 21' 56.50" 1.000E-01 0.500 F 0.087 0.431 20.0 V 0.70 0.23 o 691 0.98 Yes Yes
2016RD20 O C H 2016-10-01.30648 1.000E-05 01:33:03.330 1.500E-01 0.500 F -0.235 0.441 -02° 21' 56.80" 1.000E-01 0.500 F 0.149 -0.341 o 691 1.13 Yes No
Anteros O C 2016-10-01.30920 1.000E-05 01:36:43.570 1.500E-01 0.500 F -0.247 0.072 +25° 38' 15.80" 1.000E-01 0.500 F 0.329 0.002 17.2 V 0.70 0.04 o 691 0.14 Yes Yes
2005CL O C H 2016-10-01.30920 1.000E-05 01:38:45.980 1.500E-01 0.500 F -0.182 -0.292 +25° 34' 59.50" 1.000E-01 0.500 F 0.337 -0.627 o 691 1.40 Yes No
Anteros O C 2016-10-01.31148 1.000E-05 01:36:43.340 1.500E-01 0.500 F -0.247 -0.098 +25° 38' 14.50" 1.000E-01 0.500 F 0.329 0.075 17.2 V 0.70 0.04 o 691 0.25 Yes Yes
2005CL O C H 2016-10-01.31148 1.000E-05 01:38:45.270 1.500E-01 0.500 F -0.182 0.372 +25° 34' 54.40" 1.000E-01 0.500 F 0.337 -0.438 o 691 1.16 Yes No
Anteros O C 2016-10-01.31378 1.000E-05 01:36:43.120 1.500E-01 0.500 F -0.247 -0.106 +25° 38' 13.10" 1.000E-01 0.500 F 0.329 0.060 17.2 V 0.70 0.04 o 691 0.24 Yes Yes
2005CL O C H 2016-10-01.31378 1.000E-05 01:38:44.480 1.500E-01 0.500 F -0.182 0.043 +25° 34' 48.90" 1.000E-01 0.500 F 0.337 -0.601 o 691 1.22 Yes No
2005SF O C H 2016-10-01.33830 1.000E-05 02:16:49.220 1.500E-01 0.500 F -0.208 0.304 -14° 19' 31.30" 1.000E-01 0.500 F 0.107 -0.478 19.9 V 0.70 0.20 o 691 1.14 Yes Yes
2005SF O C H 2016-10-01.34058 1.000E-05 02:16:48.840 1.500E-01 0.500 F -0.208 0.231 -14° 19' 32.40" 1.000E-01 0.500 F 0.107 -0.482 19.8 V 0.70 0.10 o 691 1.08 Yes Yes
2005SF O C H 2016-10-01.34286 1.000E-05 02:16:48.410 1.500E-01 0.500 F -0.208 -0.568 -14° 19' 33.30" 1.000E-01 0.500 F 0.107 -0.287 19.8 V 0.70 0.10 o 691 1.28 Yes Yes
2006SX217 O C 2016-10-01.34947 1.000E-05 02:29:55.210 1.500E-01 0.500 F -0.223 -0.348 +05° 56' 56.10" 1.000E-01 0.500 F 0.236 -0.230 20.8 V 0.70 -0.10 o 691 0.84 Yes Yes
2016SG17 O C H 2016-10-01.34947 1.000E-05 02:30:08.390 1.500E-01 0.500 F -0.174 0.196 +05° 24' 28.60" 1.000E-01 0.500 F 0.190 -0.491 20.3 V 0.70 0.18 o 691 1.06 Yes Yes
2006SX217 O C 2016-10-01.35365 1.000E-05 02:29:54.790 1.500E-01 0.500 F -0.223 -0.152 +05° 56' 57.10" 1.000E-01 0.500 F 0.236 -0.115 20.6 V 0.70 -0.30 o 691 0.39 Yes Yes
2016SG17 O C H 2016-10-01.35365 1.000E-05 02:30:06.680 1.500E-01 0.500 F -0.174 0.285 +05° 24' 47.20" 1.000E-01 0.500 F 0.190 -0.942 20.1 V 0.70 -0.02 o 691 1.98 Yes Yes
2016SG17 O C H 2016-10-01.35783 1.000E-05 02:30:05.000 1.500E-01 0.500 F -0.174 0.832 +05° 25' 06.20" 1.000E-01 0.500 F 0.190 -0.992 20.3 V 0.70 0.18 o 691 2.60 Yes Yes

[1-200] [201-400] [401-600] [601-800] [801-1000] [1001-1200] [1201-1400] [1401-1600] [1601-1800] [1801-2000] [2001-2200] [2201-2400] [2401-2600] [2601-2800] [2801-3000] [3001-3200] [3201-3400] [3401-3600] [3601-3800] [3801-4000] [4001-4200] [4201-4400] [4401-4600] [4601-4800] [4801-5000] [5001-5200] [5201-5400] [5401-5600] [5601-5800] [5801-6000] [6001-6200] [6201-6400] [6401-6600] [6601-6800] [6801-7000] [7001-7200] [7201-7400] [7401-7600] [7601-7800] [7801-8000] [8001-8200] [8201-8400] [8401-8600] [8601-8800] [8801-9000] [9001-9200] [9201-9400] [9401-9600] [9601-9800] [9801-10000] [10001-10200] [10201-10400] [10401-10600] [10601-10800] [10801-11000] [11001-11200] [11201-11400] [11401-11600] [11601-11800] [11801-12000] [12001-12200] [12201-12400] [12401-12600] [12601-12800] [12801-13000] [13001-13200] [13201-13400] [13401-13600] [13601-13800] [13801-14000] [14001-14200] [14201-14400] [14401-14600] [14601-14800] [14801-15000] [15001-15200] [15201-15400] [15401-15600] [15601-15800] [15801-16000] [16001-16200] [16201-16400] [16401-16600] [16601-16800] [16801-17000] [17001-17200] [17201-17400] [17401-17600] [17601-17800] [17801-18000] [18001-18200] [18201-18400] [18401-18600] [18601-18800] [18801-19000] [19001-19200] [19201-19400] [19401-19600] [19601-19800] [19801-20000] [20001-20200] [20201-20400] [20401-20600] [20601-20800] [20801-21000] [21001-21200] [21201-21400] [21401-21600] [21601-21800] [21801-22000] [22001-22200] [22201-22400] [22401-22600] [22601-22800] [22801-23000] [23001-23200] [23201-23400] [23401-23600] [23601-23800] [23801-24000] [24001-24200] [24201-24400] [24401-24600] [24601-24800] [24801-25000] [25001-25200] [25201-25400] [25401-25600] [25601-25800] [25801-26000] [26001-26200] [26201-26400] [26401-26600] [26601-26800] [26801-27000] [27001-27200] [27201-27400] [27401-27600] [27601-27800] [27801-28000] [28001-28200] [28201-28400] [28401-28600] [28601-28800] [28801-29000] [29001-29200] [29201-29400] [29401-29600] [29601-29800] [29801-30000] [30001-30200] [30201-30400] [30401-30600] [30601-30800] [30801-31000] [31001-31200] [31201-31400] [31401-31600] [31601-31800] [31801-32000] [32001-32200] [32201-32400] [32401-32600] [32601-32800] [32801-33000] [33001-33200] [33201-33400] [33401-33600] [33601-33800] [33801-34000] [34001-34200] [34201-34400] [34401-34600] [34601-34800] [34801-35000] [35001-35200] [35201-35400] [35401-35600] [35601-35800] [35801-36000] [36001-36200] [36201-36400] [36401-36600] [36601-36800] [36801-37000] [37001-37200] [37201-37400] [37401-37600] [37601-37800] [37801-38000] [38001-38200] [38201-38400] [38401-38600] [38601-38800] [38801-39000] [39001-39200] [39201-39400] [39401-39600] [39601-39800] [39801-40000] [40001-40200] [40201-40400] [40401-40600] [40601-40800] [40801-41000] [41001-41200] [41201-41400] [41401-41600] [41601-41800] [41801-42000] [42001-42200] [42201-42400] [42401-42600] [42601-42800] [42801-43000] [43001-43200] [43201-43400] [43401-43600] [43601-43800] [43801-44000] [44001-44200] [44201-44400] [44401-44600] [44601-44800] [44801-45000] [45001-45200] [45201-45400] [45401-45600] [45601-45800] [45801-46000] [46001-46200] [46201-46400] [46401-46600] [46601-46800] [46801-47000] [47001-47200] [47201-47400] [47401-47600] [47601-47800] [47801-48000] [48001-48200] [48201-48400] [48401-48600] [48601-48800] [48801-49000] [49001-49200] [49201-49400] [49401-49600] [49601-49800] [49801-50000] [50001-50200] [50201-50388]